Weather at Pensinger Airport [CLOSED]

Public forecast

Using degrees Fahrenheit for public forecast. Weather courtesy of forecast.io.

Closest aviation weather report (METAR) to Pensinger Airport

Closest report is Tri-Cities Regional TN/VA Airport, 20.2 nm (37.3 km) ENE. Retrieved 2021/06/25 02:53 UTC (23 minutes ago):

KTRI 250253Z 13005KT 10SM BKN150 22/14 A3025 RMK AO2 SLP218 T02220139 53010

Closest aviation forecast (TAF) to Pensinger Airport

Closest forecast is Tri-Cities Regional TN/VA Airport, 20.2 nm (37.3 km) ENE. Retrieved 2021-06-25 00:22 UTC (3 hours ago):

TAF KTRI 242320Z 2500/2524 14004KT P6SM FEW050 FM250200 VRB03KT P6SM FEW250 FM251700 17005KT P6SM FEW060 SCT250